• Join FlightAware (Why Join?)
  • Login
  • US Flag 
07:36PM EDT


 

Airport Tracker/Info


-or-


 

Live Flight TrackerFlight Track Log ✈ RPA3468 ✈ 19-Jul-2013 ✈ KDCA - KBTV

Flight Track Log - Related Links

Times and Time Zones

All times are in EDT time to prevent confusion due to time zone crossing. See the RPA3468 flight status page for this flight to view local times or setup timezone preferences in your user account.

Time Position Orientation Groundspeed Altitude Reporting Facility
EDT Latitude Longitude Course Direction KTS MPH feet Rate Location/Type
08:09PM 38.8000 -77.0333 83° East 159 183 2,100  Level Potomac TRACON
08:10PM 38.7500 -77.0333 180° South 229 264 3,400 1,920 Climbing Potomac TRACON
08:11PM 39.0204 -76.5556 67° East  Level FlightAware Approximate
08:11PM 38.7333 -76.9500 104° East 298 343 5,800  Level Potomac TRACON
08:12PM 39.0662 -76.4346 63° Northeast  Level FlightAware Approximate
08:12PM 38.8167 -76.9000 25° Northeast 297 342 8,600  Level Potomac TRACON
08:13PM 39.1167 -76.3166 90° East  Level FlightAware Approximate
08:13PM 38.8833 -76.8333 38° Northeast 321 369 10,900  Level Potomac TRACON
08:14PM 39.1518 -76.1988 83° East  Level FlightAware Approximate
08:14PM 38.9000 -76.6833 82° East 368 423 12,700  Level Potomac TRACON
08:16PM 38.9892 -76.4836 60° Northeast 367 422 16,300 1,860 Climbing Washington Center
08:17PM 39.0589 -76.3747 50° Northeast 375 432 18,200 1,320 Climbing Washington Center
08:18PM 39.1303 -76.2633 50° Northeast 388 447 19,000 1,140 Climbing Washington Center
08:19PM 39.1789 -76.1111 68° East 400 460 20,500 1,500 Climbing Washington Center
08:20PM 39.2503 -75.9908 53° Northeast 406 467 22,000 1,500 Climbing Washington Center
08:21PM 39.3028 -75.8544 64° Northeast 412 474 23,500 1,380 Climbing Washington Center
08:22PM 39.3697 -75.7203 57° Northeast 423 487 24,800 1,320 Climbing Washington Center
08:23PM 39.4489 -75.6022 49° Northeast 429 494 26,200 1,260 Climbing Washington Center
08:24PM 39.5364 -75.4839 46° Northeast 434 499 27,400 780 Climbing Washington Center
08:26PM 39.7322 -75.1978 48° Northeast 452 520 29,000 420 Climbing New York Center
08:27PM 39.8250 -75.0578 49° Northeast 465 535 29,000  Level New York Center
08:28PM 39.9111 -74.9278 49° Northeast 470 541 29,000  Level New York Center
08:29PM 39.9903 -74.8106 49° Northeast 470 541 29,000  Level New York Center
08:30PM 40.1122 -74.7172 30° Northeast 465 535 29,000  Level New York Center
08:31PM 40.2450 -74.6675 16° North 457 526 29,000  Level New York Center
08:33PM 40.5022 -74.5797 15° North 477 549 29,000  Level Boston Center
08:34PM 40.6322 -74.5375 14° North 477 549 29,000  Level Boston Center
08:35PM 40.7603 -74.4925 15° North 477 549 29,000  Level Boston Center
08:36PM 40.8903 -74.4472 15° North 472 543 29,000  Level Boston Center
08:37PM 41.0181 -74.4069 13° North 472 543 29,000  Level Boston Center
08:38PM 41.1669 -74.3619 13° North 478 550 29,000  Level Boston Center
08:39PM 41.2781 -74.3183 16° North 478 550 29,000  Level Boston Center
08:40PM 41.4122 -74.2725 14° North 473 544 29,000  Level Boston Center
08:41PM 41.5569 -74.2239 14° North 473 544 29,000  Level Boston Center
08:42PM 41.6867 -74.1803 14° North 473 544 29,000  Level Boston Center
08:43PM 41.8144 -74.1392 13° North 466 536 29,000  Level Boston Center
08:44PM 41.9444 -74.0925 15° North 466 536 29,000  Level Boston Center
08:45PM 42.0744 -74.0456 15° North 472 543 29,000  Level Boston Center
08:46PM 42.2042 -74.0011 14° North 472 543 29,000  Level Boston Center
08:47PM 42.3361 -73.9539 15° North 472 543 29,000  Level Boston Center
08:48PM 42.4681 -73.9064 15° North 477 549 29,000  Level Boston Center
08:49PM 42.5958 -73.8644 14° North 472 543 29,000  Level Boston Center
08:50PM 42.7236 -73.8108 17° North 472 543 29,000 -420 Level Boston Center
08:51PM 42.8511 -73.7683 14° North 472 543 28,200 -1,200 Descending Boston Center
08:52PM 42.9683 -73.7339 12° North 455 524 26,600 -1,680 Descending Boston Center
08:53PM 43.0811 -73.7022 12° North 428 493 24,900 -1,320 Descending Boston Center
08:54PM 43.1919 -73.6789 North 413 475 24,000 -480 Descending Boston Center
08:55PM 43.3025 -73.6642 North 406 467 24,000  Level Boston Center
08:56PM 43.4172 -73.6519 North 406 467 24,000  Level Boston Center
08:57PM 43.5319 -73.6314 North 411 473 24,000 -300 Level Boston Center
08:58PM 43.6447 -73.6108 North 411 473 23,500 -720 Descending Boston Center
08:59PM 43.7558 -73.5639 17° North 405 466 22,600 -1,200 Descending Boston Center
09:00PM 43.8583 -73.5025 23° Northeast 410 472 21,200 -2,340 Descending Boston Center
09:01PM 43.9653 -73.4439 22° Northeast 410 472 18,000 -2,700 Descending Boston Center
09:02PM 44.0575 -73.3878 24° Northeast 389 448 15,900 -2,280 Descending Boston Center
09:03PM 44.1475 -73.3400 21° North 356 410 13,500 -2,580 Descending Boston Center
09:04PM 44.2289 -73.2889 24° Northeast 333 383 10,800 -2,700 Descending Boston Center
09:05PM 44.3086 -73.2467 21° North 318 366 8,200 -2,520 Descending Boston Center
09:06PM 44.3858 -73.2128 17° North 304 350 5,800 -2,100 Descending Boston Center
09:07PM 44.4439 -73.2658 327° Northwest 247 284 4,000 -1,800 Descending Boston Center